createdAt,value
2019-06-01T00:00:12.038Z,97.23
2019-06-01T00:01:08.249Z,96.97
2019-06-01T00:02:08.231Z,97.03
2019-06-01T00:03:08.219Z,97.23
2019-06-01T00:04:08.223Z,97.03
2019-06-01T00:05:08.189Z,97.33
2019-06-01T00:06:08.253Z,96.83
2019-06-01T00:07:08.183Z,97.03
2019-06-01T00:08:08.554Z,97.27
2019-06-01T00:09:08.182Z,96.97
2019-06-01T00:10:08.141Z,97.13
2019-06-01T00:11:08.127Z,97.38
2019-06-01T00:12:08.111Z,97.47
2019-06-01T00:13:08.101Z,97.27
2019-06-01T00:14:08.123Z,97.07
2019-06-01T00:15:16.613Z,97.58
2019-06-01T00:16:08.069Z,98.33
2019-06-01T00:17:08.071Z,97.88
2019-06-01T00:18:08.047Z,98.33
2019-06-01T00:19:08.051Z,98.03
2019-06-01T00:20:08.025Z,97.73
2019-06-01T00:21:08.010Z,98.08
2019-06-01T00:22:08.003Z,98.03
2019-06-01T00:23:07.989Z,98.18
2019-06-01T00:24:07.997Z,98.24
2019-06-01T00:25:07.973Z,97.78
2019-06-01T00:26:07.957Z,98.28
2019-06-01T00:27:07.958Z,98.38
2019-06-01T00:28:07.937Z,98.08
2019-06-01T00:29:07.952Z,97.98
2019-06-01T00:30:07.928Z,97.98
2019-06-01T00:31:07.899Z,98.38
2019-06-01T00:32:07.889Z,98.18
2019-06-01T00:33:07.956Z,98.68
2019-06-01T00:34:07.890Z,98.68
2019-06-01T00:35:07.858Z,97.98
2019-06-01T00:36:07.886Z,98.73
2019-06-01T00:37:07.835Z,98.68
2019-06-01T00:38:07.829Z,98.93
2019-06-01T00:39:07.834Z,98.08
2019-06-01T00:40:07.824Z,98.38
2019-06-01T00:41:07.791Z,98.79
2019-06-01T00:42:07.783Z,98.93
2019-06-01T00:43:07.768Z,98.53
2019-06-01T00:44:07.899Z,98.48
2019-06-01T00:45:07.743Z,98.43
2019-06-01T00:46:07.737Z,98.53
2019-06-01T00:47:07.725Z,98.53
2019-06-01T00:48:07.721Z,98.73
2019-06-01T00:49:07.740Z,98.63
2019-06-01T00:50:07.687Z,98.68
2019-06-01T00:51:07.681Z,98.13
2019-06-01T00:52:07.678Z,98.53
2019-06-01T00:53:07.666Z,98.53
2019-06-01T00:54:07.664Z,98.53
2019-06-01T00:55:07.638Z,98.63
2019-06-01T00:56:07.623Z,98.33
2019-06-01T00:57:07.615Z,98.33
2019-06-01T00:58:07.607Z,98.43
2019-06-01T00:59:07.603Z,98.43
2019-06-01T01:00:07.580Z,99.04
2019-06-01T01:01:07.563Z,98.93
2019-06-01T01:02:07.567Z,98.13
2019-06-01T01:03:07.548Z,98.63
2019-06-01T01:04:07.557Z,98.93
2019-06-01T01:05:07.526Z,99.04
2019-06-01T01:06:07.513Z,98.73
2019-06-01T01:07:07.498Z,98.73
2019-06-01T01:08:07.486Z,98.83
2019-06-01T01:09:07.499Z,99.04
2019-06-01T01:10:07.485Z,98.83
2019-06-01T01:11:07.501Z,98.98
2019-06-01T01:12:07.449Z,98.93
2019-06-01T01:13:07.434Z,99.18
2019-06-01T01:14:07.425Z,98.88
2019-06-01T01:15:07.455Z,98.78
2019-06-01T01:16:07.433Z,99.38
2019-06-01T01:17:10.295Z,98.88
2019-06-01T01:18:07.450Z,99.08
2019-06-01T01:19:07.370Z,99.28
2019-06-01T01:20:07.372Z,98.98
2019-06-01T01:21:07.341Z,99.38
2019-06-01T01:22:07.335Z,99.28
2019-06-01T01:23:07.321Z,99.18
2019-06-01T01:24:07.321Z,99.18
2019-06-01T01:25:07.314Z,99.38
2019-06-01T01:26:07.295Z,98.98
2019-06-01T01:27:07.276Z,99.08
2019-06-01T01:28:07.279Z,98.88
2019-06-01T01:29:07.256Z,99.08
2019-06-01T01:30:07.263Z,99.18
2019-06-01T01:31:13.900Z,98.98
2019-06-01T01:32:08.218Z,98.98
2019-06-01T01:33:07.217Z,98.98
2019-06-01T01:34:07.206Z,99.02
2019-06-01T01:35:07.212Z,98.93
2019-06-01T01:36:07.189Z,98.98
2019-06-01T01:37:07.167Z,99.38
2019-06-01T01:38:07.155Z,99.33
2019-06-01T01:39:07.152Z,99.58
2019-06-01T01:40:07.149Z,99.53
2019-06-01T01:41:07.126Z,99.02
2019-06-01T01:42:07.108Z,98.98
2019-06-01T01:43:07.102Z,99.02
2019-06-01T01:44:07.085Z,99.02
2019-06-01T01:45:07.117Z,99.33
2019-06-01T01:46:07.081Z,99.33
2019-06-01T01:47:07.055Z,99.13
2019-06-01T01:48:07.046Z,99.33
2019-06-01T01:49:07.048Z,99.22
2019-06-01T01:50:07.048Z,98.88
2019-06-01T01:51:07.033Z,98.93
2019-06-01T01:52:07.005Z,98.52
2019-06-01T01:53:06.993Z,98.62
2019-06-01T01:54:06.975Z,99.33
2019-06-01T01:55:07.009Z,99.02
2019-06-01T01:56:06.963Z,98.02
2019-06-01T01:57:07.327Z,99.02
2019-06-01T01:58:06.932Z,98.82
2019-06-01T01:59:06.928Z,98.72
2019-06-01T02:00:06.953Z,98.72
2019-06-01T02:01:21.353Z,99.02
2019-06-01T02:02:07.888Z,98.93
2019-06-01T02:03:06.883Z,98.72
2019-06-01T02:04:06.878Z,98.42
2019-06-01T02:05:06.877Z,98.82
2019-06-01T02:06:06.845Z,98.72
2019-06-01T02:07:06.834Z,98.42
2019-06-01T02:08:06.830Z,98.72
2019-06-01T02:09:06.824Z,99.02
2019-06-01T02:10:06.835Z,99.22
2019-06-01T02:11:06.792Z,98.93
2019-06-01T02:12:06.787Z,98.52
2019-06-01T02:13:06.767Z,99.13
2019-06-01T02:14:06.759Z,98.72
2019-06-01T02:15:06.765Z,98.93
2019-06-01T02:16:06.731Z,99.33
2019-06-01T02:17:06.728Z,99.13
2019-06-01T02:18:06.718Z,98.93
2019-06-01T02:19:06.708Z,99.02
2019-06-01T02:20:06.722Z,99.13
2019-06-01T02:21:06.676Z,98.93
2019-06-01T02:22:06.664Z,99.02
2019-06-01T02:23:06.663Z,99.02
2019-06-01T02:24:06.649Z,99.53
2019-06-01T02:25:06.652Z,99.43
2019-06-01T02:26:06.617Z,98.93
2019-06-01T02:27:06.613Z,98.57
2019-06-01T02:28:06.603Z,98.97
2019-06-01T02:29:06.590Z,99.18
2019-06-01T02:30:06.598Z,99.13
2019-06-01T02:31:06.575Z,98.87
2019-06-01T02:32:06.819Z,98.77
2019-06-01T02:33:06.555Z,99.27
2019-06-01T02:34:06.613Z,98.57
2019-06-01T02:35:06.539Z,98.36
2019-06-01T02:36:06.515Z,98.27
2019-06-01T02:37:06.510Z,98.67
2019-06-01T02:38:06.486Z,98.67
2019-06-01T02:39:06.477Z,98.97
2019-06-01T02:40:06.504Z,98.77
2019-06-01T02:41:06.475Z,98.77
2019-06-01T02:42:06.451Z,98.87
2019-06-01T02:43:07.116Z,98.77
2019-06-01T02:44:06.544Z,99.27
2019-06-01T02:45:06.424Z,98.57
2019-06-01T02:46:07.522Z,98.77
2019-06-01T02:47:06.497Z,97.86
2019-06-01T02:48:06.736Z,98.57
2019-06-01T02:49:06.531Z,98.82
2019-06-01T02:50:06.592Z,98.82
2019-06-01T02:51:06.345Z,98.67
2019-06-01T02:52:06.336Z,98.27
2019-06-01T02:53:06.341Z,99.22
2019-06-01T02:54:06.439Z,98.57
2019-06-01T02:55:06.512Z,98.41
2019-06-01T02:56:06.326Z,98.82
2019-06-01T02:57:06.304Z,98.92
2019-06-01T02:58:06.697Z,98.61
2019-06-01T02:59:06.745Z,98.21
2019-06-01T03:00:06.709Z,98.11
2019-06-01T03:01:07.037Z,98.41
2019-06-01T03:02:10.641Z,98.21
2019-06-01T03:03:07.209Z,98.41
2019-06-01T03:04:07.768Z,98.61
2019-06-01T03:05:07.568Z,98.51
2019-06-01T03:06:06.187Z,99.02
2019-06-01T03:07:07.453Z,98.82
2019-06-01T03:08:06.151Z,98.71
2019-06-01T03:09:06.814Z,98.61
2019-06-01T03:10:07.057Z,98.41
2019-06-01T03:11:06.124Z,98.71
2019-06-01T03:12:06.387Z,98.21
2019-06-01T03:13:06.217Z,98.51
2019-06-01T03:14:06.604Z,98.11
2019-06-01T03:15:06.537Z,98.21
2019-06-01T03:16:06.627Z,98.61
2019-06-01T03:17:06.056Z,97.71
2019-06-01T03:18:06.054Z,97.60
2019-06-01T03:19:06.044Z,97.30
2019-06-01T03:20:06.359Z,97.30
2019-06-01T03:21:06.374Z,97.40
2019-06-01T03:22:07.266Z,97.30
2019-06-01T03:23:05.996Z,97.10
2019-06-01T03:24:06.061Z,97.50
2019-06-01T03:25:05.997Z,98.71
2019-06-01T03:26:06.283Z,97.71
2019-06-01T03:27:06.349Z,97.60
2019-06-01T03:28:06.237Z,97.60
2019-06-01T03:29:07.282Z,97.71
2019-06-01T03:30:08.531Z,97.10
2019-06-01T03:31:08.390Z,97.80
2019-06-01T03:32:27.620Z,97.71
2019-06-01T03:33:08.572Z,97.10
2019-06-01T03:34:06.930Z,97.40
2019-06-01T03:35:06.769Z,97.30
2019-06-01T03:36:06.915Z,97.20
2019-06-01T03:37:06.967Z,97.00
2019-06-01T03:38:06.940Z,96.89
2019-06-01T03:39:06.097Z,97.00
2019-06-01T03:40:11.044Z,96.59
2019-06-01T03:41:06.810Z,97.30
2019-06-01T03:42:05.770Z,97.60
2019-06-01T03:43:05.761Z,97.50
2019-06-01T03:44:06.557Z,97.30
2019-06-01T03:45:05.746Z,97.10
2019-06-01T03:46:06.669Z,96.74
2019-06-01T03:47:05.743Z,96.80
2019-06-01T03:48:06.766Z,96.94
2019-06-01T03:49:05.816Z,96.84
2019-06-01T03:50:06.925Z,96.94
2019-06-01T03:51:05.791Z,96.94
2019-06-01T03:52:06.866Z,96.64
2019-06-01T03:53:05.873Z,96.64
2019-06-01T03:54:06.913Z,97.05
2019-06-01T03:55:05.903Z,96.84
2019-06-01T03:56:05.648Z,96.84
2019-06-01T03:57:05.609Z,96.54
2019-06-01T03:58:05.612Z,96.84
2019-06-01T03:59:05.591Z,97.25
2019-06-01T04:00:05.572Z,97.34
2019-06-01T04:01:05.595Z,97.25
2019-06-01T04:02:05.556Z,97.20
2019-06-01T04:03:05.547Z,97.30
2019-06-01T04:04:05.528Z,97.00
2019-06-01T04:05:05.707Z,96.69
2019-06-01T04:06:05.528Z,97.14
2019-06-01T04:07:06.355Z,95.89
2019-06-01T04:08:05.628Z,96.03
2019-06-01T04:09:05.634Z,96.19
2019-06-01T04:10:05.771Z,96.39
2019-06-01T04:11:05.703Z,96.29
2019-06-01T04:12:05.569Z,96.29
2019-06-01T04:13:05.644Z,96.29
2019-06-01T04:14:05.665Z,96.09
2019-06-01T04:15:10.216Z,95.58
2019-06-01T04:16:06.421Z,95.89
2019-06-01T04:17:06.105Z,95.68
2019-06-01T04:18:06.079Z,96.19
2019-06-01T04:19:06.012Z,95.98
2019-06-01T04:20:05.997Z,95.18
2019-06-01T04:21:06.020Z,94.98
2019-06-01T04:22:05.887Z,95.28
2019-06-01T04:23:06.185Z,95.78
2019-06-01T04:24:05.978Z,95.98
2019-06-01T04:25:05.987Z,95.98
2019-06-01T04:26:05.982Z,95.68
2019-06-01T04:27:06.113Z,95.58
2019-06-01T04:28:06.233Z,95.18
2019-06-01T04:29:06.373Z,95.28
2019-06-01T04:30:06.672Z,94.87
2019-06-01T04:31:06.412Z,94.83
2019-06-01T04:32:06.433Z,94.57
2019-06-01T04:33:05.211Z,95.07
2019-06-01T04:34:05.196Z,94.83
2019-06-01T04:35:05.189Z,94.98
2019-06-01T04:36:05.173Z,95.28
2019-06-01T04:37:05.285Z,95.18
2019-06-01T04:38:05.148Z,95.28
2019-06-01T04:39:05.341Z,94.57
2019-06-01T04:40:05.326Z,94.43
2019-06-01T04:41:05.698Z,94.53
2019-06-01T04:42:05.547Z,94.32
2019-06-01T04:43:05.720Z,94.32
2019-06-01T04:44:05.910Z,94.93
2019-06-01T04:45:06.710Z,94.63
2019-06-01T04:46:06.138Z,94.63
2019-06-01T04:47:06.574Z,94.48
2019-06-01T04:48:06.306Z,94.99
2019-06-01T04:49:05.035Z,94.48
2019-06-01T04:50:05.019Z,94.59
2019-06-01T04:51:05.002Z,94.08
2019-06-01T04:52:05.026Z,94.08
2019-06-01T04:53:04.984Z,93.57
2019-06-01T04:54:04.979Z,94.04
2019-06-01T04:55:05.247Z,93.93
2019-06-01T04:56:04.952Z,93.53
2019-06-01T04:57:04.963Z,93.53
2019-06-01T04:58:04.926Z,93.13
2019-06-01T04:59:05.008Z,93.43
2019-06-01T05:00:15.349Z,93.23
2019-06-01T05:01:06.933Z,93.02
2019-06-01T05:02:05.632Z,93.08
2019-06-01T05:03:07.267Z,92.68
2019-06-01T05:04:04.982Z,92.58
2019-06-01T05:05:04.909Z,92.47
2019-06-01T05:06:05.101Z,93.59
2019-06-01T05:07:05.097Z,93.18
2019-06-01T05:08:05.187Z,92.98
2019-06-01T05:09:05.214Z,92.58
2019-06-01T05:10:05.209Z,91.83
2019-06-01T05:11:06.639Z,92.13
2019-06-01T05:12:05.265Z,92.58
2019-06-01T05:13:05.322Z,92.33
2019-06-01T05:14:05.438Z,91.83
2019-06-01T05:15:05.517Z,91.63
2019-06-01T05:16:05.884Z,92.39
2019-06-01T05:17:05.904Z,92.29
2019-06-01T05:18:05.886Z,92.29
2019-06-01T05:19:05.950Z,92.39
2019-06-01T05:20:06.128Z,91.78
2019-06-01T05:21:04.672Z,91.94
2019-06-01T05:22:04.688Z,91.74
2019-06-01T05:23:04.654Z,92.05
2019-06-01T05:24:04.642Z,90.84
2019-06-01T05:25:04.632Z,90.03
2019-06-01T05:26:04.616Z,89.83
2019-06-01T05:27:04.661Z,89.93
2019-06-01T05:28:04.599Z,89.99
2019-06-01T05:29:04.585Z,89.59
2019-06-01T05:30:04.572Z,90.09
2019-06-01T05:31:04.561Z,90.59
2019-06-01T05:32:04.576Z,90.09
2019-06-01T05:33:18.534Z,89.89
2019-06-01T05:34:05.534Z,89.39
2019-06-01T05:35:04.522Z,90.19
2019-06-01T05:36:04.505Z,89.99
2019-06-01T05:37:04.517Z,89.59
2019-06-01T05:38:04.484Z,89.48
2019-06-01T05:39:04.472Z,89.59
2019-06-01T05:40:04.463Z,89.08
2019-06-01T05:41:04.458Z,89.08
2019-06-01T05:42:04.460Z,89.18
2019-06-01T05:43:04.431Z,89.48
2019-06-01T05:44:04.416Z,89.28
2019-06-01T05:45:04.402Z,89.59
2019-06-01T05:46:04.410Z,88.78
2019-06-01T05:47:04.559Z,89.04
2019-06-01T05:48:04.374Z,89.99
2019-06-01T05:49:04.361Z,89.04
2019-06-01T05:50:04.350Z,88.94
2019-06-01T05:51:04.449Z,89.14
2019-06-01T05:52:04.353Z,88.64
2019-06-01T05:53:04.330Z,88.13
2019-06-01T05:54:04.300Z,88.43
2019-06-01T05:55:04.296Z,88.98
2019-06-01T05:56:04.285Z,88.13
2019-06-01T05:57:04.314Z,87.73
2019-06-01T05:58:04.263Z,88.13
2019-06-01T05:59:04.254Z,88.54
2019-06-01T06:00:04.234Z,89.14
2019-06-01T06:01:05.701Z,87.23
2019-06-01T06:02:04.236Z,87.73
2019-06-01T06:03:04.213Z,87.63
2019-06-01T06:04:04.205Z,87.83
2019-06-01T06:05:04.180Z,88.54
2019-06-01T06:06:04.190Z,88.49
2019-06-01T06:07:04.181Z,88.54
2019-06-01T06:08:04.152Z,86.99
2019-06-01T06:09:04.143Z,87.08
2019-06-01T06:10:04.127Z,87.19
2019-06-01T06:11:04.116Z,86.99
2019-06-01T06:12:04.129Z,86.65
2019-06-01T06:13:04.093Z,86.54
2019-06-01T06:14:04.090Z,86.85
2019-06-01T06:15:04.073Z,86.65
2019-06-01T06:16:04.060Z,86.14
2019-06-01T06:17:04.067Z,86.24
2019-06-01T06:18:04.040Z,86.14
2019-06-01T06:19:04.034Z,85.53
2019-06-01T06:20:04.021Z,85.53
2019-06-01T06:21:04.008Z,85.53
2019-06-01T06:22:04.022Z,86.04
2019-06-01T06:23:03.984Z,86.30
2019-06-01T06:24:03.974Z,86.90
2019-06-01T06:25:03.970Z,86.60
2019-06-01T06:26:03.954Z,86.10
2019-06-01T06:27:03.957Z,86.30
2019-06-01T06:28:03.926Z,85.10
2019-06-01T06:29:03.916Z,85.19
2019-06-01T06:30:03.909Z,85.25
2019-06-01T06:31:03.894Z,84.49
2019-06-01T06:32:03.904Z,83.39
2019-06-01T06:33:03.882Z,84.39
2019-06-01T06:34:03.871Z,83.69
2019-06-01T06:35:03.850Z,84.80
2019-06-01T06:36:03.837Z,84.29
2019-06-01T06:37:03.846Z,84.89
2019-06-01T06:38:03.820Z,84.69
2019-06-01T06:39:04.796Z,84.29
2019-06-01T06:40:03.794Z,83.79
2019-06-01T06:41:03.787Z,84.29
2019-06-01T06:42:03.810Z,84.89
2019-06-01T06:43:16.600Z,84.89
2019-06-01T06:44:04.746Z,83.89
2019-06-01T06:45:03.908Z,85.05
2019-06-01T06:46:03.725Z,84.35
2019-06-01T06:47:03.748Z,84.35
2019-06-01T06:48:03.717Z,84.51
2019-06-01T06:49:03.702Z,83.04
2019-06-01T06:50:03.707Z,83.31
2019-06-01T06:51:03.678Z,81.90
2019-06-01T06:52:03.702Z,83.01
2019-06-01T06:53:03.652Z,82.81
2019-06-01T06:54:03.650Z,81.87
2019-06-01T06:55:03.631Z,82.10
2019-06-01T06:56:03.623Z,81.96
2019-06-01T06:57:03.620Z,81.96
2019-06-01T06:58:03.593Z,81.20
2019-06-01T06:59:03.597Z,81.30
2019-06-01T07:00:03.570Z,80.80
2019-06-01T07:01:03.559Z,81.20
2019-06-01T07:02:03.575Z,81.46
2019-06-01T07:03:03.549Z,81.50
2019-06-01T07:04:12.279Z,81.80
2019-06-01T07:05:04.520Z,81.90
2019-06-01T07:06:03.537Z,81.46
2019-06-01T07:07:03.494Z,80.92
2019-06-01T07:08:03.509Z,80.82
2019-06-01T07:09:03.468Z,80.02
2019-06-01T07:10:03.470Z,79.12
2019-06-01T07:11:03.455Z,78.52
2019-06-01T07:12:03.452Z,79.02
2019-06-01T07:13:03.448Z,79.12
2019-06-01T07:14:03.420Z,78.92
2019-06-01T07:15:03.415Z,77.58
2019-06-01T07:16:04.012Z,77.58
2019-06-01T07:17:03.381Z,77.37
2019-06-01T07:18:03.422Z,77.78
2019-06-01T07:19:03.372Z,77.64
2019-06-01T07:20:03.364Z,77.94
2019-06-01T07:21:03.347Z,77.67
2019-06-01T07:22:03.331Z,78.18
2019-06-01T07:23:03.364Z,78.28
2019-06-01T07:24:03.368Z,78.08
2019-06-01T07:25:03.312Z,77.54
2019-06-01T07:26:03.297Z,77.91
2019-06-01T07:27:03.290Z,76.50
2019-06-01T07:28:03.285Z,76.46
2019-06-01T07:29:03.284Z,75.76
2019-06-01T07:30:03.274Z,74.56
2019-06-01T07:31:03.228Z,75.37
2019-06-01T07:32:03.245Z,74.56
2019-06-01T07:33:03.228Z,74.66
2019-06-01T07:34:03.201Z,75.16
2019-06-01T07:35:03.182Z,74.63
2019-06-01T07:36:03.177Z,72.13
2019-06-01T07:37:03.159Z,71.73
2019-06-01T07:38:03.168Z,71.62
2019-06-01T07:39:03.139Z,72.13
2019-06-01T07:40:03.130Z,71.69
2019-06-01T07:41:03.136Z,70.39
2019-06-01T07:42:03.360Z,70.09
2019-06-01T07:43:03.132Z,69.59
2019-06-01T07:44:03.106Z,70.39
2019-06-01T07:45:03.081Z,70.16
2019-06-01T07:46:03.065Z,69.89
2019-06-01T07:47:03.057Z,70.39
2019-06-01T07:48:03.072Z,70.46
2019-06-01T07:49:03.047Z,70.16
2019-06-01T07:50:03.018Z,70.23
2019-06-01T07:51:03.009Z,69.82
2019-06-01T07:52:12.833Z,69.69
2019-06-01T07:53:04.018Z,69.20
2019-06-01T07:54:02.992Z,68.79
2019-06-01T07:55:02.970Z,67.13
2019-06-01T07:56:02.949Z,68.66
2019-06-01T07:57:02.963Z,68.82
2019-06-01T07:58:02.955Z,68.82
2019-06-01T07:59:02.926Z,67.19
2019-06-01T08:00:02.912Z,64.90
2019-06-01T08:01:02.902Z,64.67
2019-06-01T08:02:02.893Z,64.10
2019-06-01T08:03:02.897Z,62.90
2019-06-01T08:04:02.866Z,63.67
2019-06-01T08:05:02.866Z,62.87
2019-06-01T08:06:02.844Z,62.07
2019-06-01T08:07:03.107Z,61.38
2019-06-01T08:08:02.838Z,60.38
2019-06-01T08:09:02.815Z,61.57
2019-06-01T08:10:02.813Z,61.18
2019-06-01T08:11:02.798Z,61.77
2019-06-01T08:12:02.789Z,62.10
2019-06-01T08:13:02.783Z,62.20
2019-06-01T08:14:02.774Z,62.48
2019-06-01T08:15:02.750Z,62.07
2019-06-01T08:16:02.739Z,61.77
2019-06-01T08:17:02.738Z,62.37
2019-06-01T08:18:02.731Z,62.45
2019-06-01T08:19:02.738Z,62.64
2019-06-01T08:20:02.693Z,61.02
2019-06-01T08:21:02.681Z,61.19
2019-06-01T08:22:02.698Z,59.99
2019-06-01T08:23:02.689Z,58.72
2019-06-01T08:24:02.723Z,60.22
2019-06-01T08:25:02.633Z,60.12
2019-06-01T08:26:02.630Z,60.12
2019-06-01T08:27:02.619Z,59.95
2019-06-01T08:28:02.622Z,61.52
2019-06-01T08:29:02.615Z,61.61
2019-06-01T08:30:02.588Z,61.32
2019-06-01T08:31:02.621Z,61.99
2019-06-01T08:32:02.569Z,61.69
2019-06-01T08:33:02.567Z,61.69
2019-06-01T08:34:02.586Z,60.26
2019-06-01T08:35:08.624Z,60.26
2019-06-01T08:36:03.514Z,60.16
2019-06-01T08:37:02.503Z,59.04
2019-06-01T08:38:02.514Z,58.34
2019-06-01T08:39:02.489Z,58.24
2019-06-01T08:40:02.482Z,58.87
2019-06-01T08:41:02.459Z,58.24
2019-06-01T08:42:02.445Z,58.64
2019-06-01T08:43:02.453Z,58.54
2019-06-01T08:44:02.426Z,58.64
2019-06-01T08:45:03.739Z,57.05
2019-06-01T08:46:02.601Z,59.11
2019-06-01T08:47:02.393Z,56.42
2019-06-01T08:48:02.406Z,57.22
2019-06-01T08:49:02.397Z,55.93
2019-06-01T08:50:02.363Z,54.83
2019-06-01T08:51:02.352Z,57.24
2019-06-01T08:52:02.339Z,57.62
2019-06-01T08:53:02.458Z,56.65
2019-06-01T08:54:02.343Z,56.95
2019-06-01T08:55:02.313Z,56.35
2019-06-01T08:56:02.296Z,56.55
2019-06-01T08:57:02.306Z,56.55
2019-06-01T08:58:02.309Z,56.75
2019-06-01T08:59:02.277Z,57.54
2019-06-01T09:00:02.254Z,56.95
2019-06-01T09:01:02.245Z,56.95
2019-06-01T09:02:02.236Z,56.85
2019-06-01T09:03:02.219Z,57.67
2019-06-01T09:04:02.238Z,56.77
2019-06-01T09:05:02.202Z,56.57
2019-06-01T09:06:02.186Z,57.45
2019-06-01T09:07:02.177Z,56.87
2019-06-01T09:08:02.171Z,57.15
2019-06-01T09:09:02.173Z,56.85
2019-06-01T09:10:02.145Z,56.45
2019-06-01T09:11:02.139Z,56.92
2019-06-01T09:12:02.119Z,56.62
2019-06-01T09:13:02.113Z,56.42
2019-06-01T09:14:02.129Z,56.52
2019-06-01T09:15:02.088Z,55.93
2019-06-01T09:16:02.077Z,55.63
2019-06-01T09:17:02.074Z,56.59
2019-06-01T09:18:02.053Z,56.59
2019-06-01T09:19:02.060Z,55.10
2019-06-01T09:20:02.042Z,55.60
2019-06-01T09:21:02.072Z,55.00
2019-06-01T09:22:02.006Z,55.08
2019-06-01T09:23:01.996Z,54.97
2019-06-01T09:24:02.014Z,53.49
2019-06-01T09:25:01.980Z,53.78
2019-06-01T09:26:02.008Z,53.58
2019-06-01T09:27:01.994Z,53.78
2019-06-01T09:28:01.946Z,54.08
2019-06-01T09:29:01.975Z,54.38
2019-06-01T09:30:02.118Z,53.86
2019-06-01T09:31:01.914Z,54.35
2019-06-01T09:32:01.908Z,53.16
2019-06-01T09:33:01.886Z,54.35
2019-06-01T09:34:01.896Z,53.49
2019-06-01T09:35:01.868Z,53.88
2019-06-01T09:36:01.858Z,54.28
2019-06-01T09:37:01.848Z,54.38
2019-06-01T09:38:01.836Z,53.76
2019-06-01T09:39:01.853Z,53.66
2019-06-01T09:40:01.813Z,53.49
2019-06-01T09:41:01.806Z,53.16
2019-06-01T09:42:01.792Z,53.58
2019-06-01T09:43:01.802Z,53.78
2019-06-01T09:44:01.795Z,54.38
2019-06-01T09:45:01.756Z,54.08
2019-06-01T09:46:01.751Z,54.06
2019-06-01T09:47:01.735Z,54.35
2019-06-01T09:48:01.721Z,52.74
2019-06-01T09:49:01.750Z,53.63
2019-06-01T09:50:01.698Z,54.13
2019-06-01T09:51:01.876Z,53.14
2019-06-01T09:52:01.836Z,53.53
2019-06-01T09:53:01.675Z,53.73
2019-06-01T09:54:01.688Z,53.66
2019-06-01T09:55:01.667Z,53.93
2019-06-01T09:56:01.636Z,54.06
2019-06-01T09:57:01.632Z,54.06
2019-06-01T09:58:01.670Z,54.63
2019-06-01T09:59:01.665Z,54.33
2019-06-01T10:00:01.780Z,55.12
2019-06-01T10:01:01.588Z,54.03
2019-06-01T10:02:01.575Z,54.03
2019-06-01T10:03:01.558Z,53.63
2019-06-01T10:04:01.573Z,53.93
2019-06-01T10:05:01.630Z,54.13
2019-06-01T10:06:02.500Z,53.80
2019-06-01T10:07:01.521Z,53.58
2019-06-01T10:08:01.523Z,53.28
2019-06-01T10:09:01.520Z,53.38
2019-06-01T10:10:01.480Z,53.58
2019-06-01T10:11:01.594Z,53.26
2019-06-01T10:12:01.461Z,52.17
2019-06-01T10:13:01.447Z,51.65
2019-06-01T10:14:01.478Z,52.26
2019-06-01T10:15:01.545Z,51.54
2019-06-01T10:16:01.428Z,50.36
2019-06-01T10:17:01.404Z,51.03
2019-06-01T10:18:01.397Z,50.71
2019-06-01T10:19:01.412Z,49.40
2019-06-01T10:20:01.379Z,49.79
2019-06-01T10:21:01.366Z,49.79
2019-06-01T10:22:01.355Z,49.66
2019-06-01T10:23:01.344Z,48.46
2019-06-01T10:24:01.350Z,48.24
2019-06-01T10:25:01.316Z,47.99
2019-06-01T10:26:01.305Z,49.52
2019-06-01T10:27:01.306Z,49.10
2019-06-01T10:28:01.293Z,48.77
2019-06-01T10:29:01.311Z,47.86
2019-06-01T10:30:01.402Z,47.64
2019-06-01T10:31:01.256Z,48.85
2019-06-01T10:32:01.247Z,47.91
2019-06-01T10:33:01.240Z,47.87
2019-06-01T10:34:01.370Z,45.34
2019-06-01T10:35:01.217Z,44.60
2019-06-01T10:36:16.592Z,43.10
2019-06-01T10:37:02.195Z,41.78
2019-06-01T10:38:01.188Z,41.08
2019-06-01T10:39:01.190Z,40.78
2019-06-01T10:40:01.170Z,40.48
2019-06-01T10:41:01.195Z,40.47
2019-06-01T10:42:01.145Z,40.84
2019-06-01T10:43:01.156Z,39.54
2019-06-01T10:44:01.281Z,39.45
2019-06-01T10:45:01.113Z,39.33
2019-06-01T10:46:01.102Z,39.61
2019-06-01T10:47:01.100Z,38.39
2019-06-01T10:48:01.097Z,38.47
2019-06-01T10:49:01.101Z,38.33
2019-06-01T10:50:01.069Z,38.51
2019-06-01T10:51:01.061Z,38.59
2019-06-01T10:52:01.052Z,37.12
2019-06-01T10:53:01.044Z,36.49
2019-06-01T10:54:01.094Z,36.59
2019-06-01T10:55:01.024Z,37.08
2019-06-01T10:56:01.014Z,36.57
2019-06-01T10:57:01.006Z,36.63
2019-06-01T10:58:01.175Z,35.33
2019-06-01T10:59:01.062Z,35.39
2019-06-01T11:00:00.990Z,33.53
2019-06-01T11:01:00.974Z,34.06
2019-06-01T11:02:00.966Z,37.18
2019-06-01T11:03:00.952Z,35.68
2019-06-01T11:04:01.087Z,35.38
2019-06-01T11:05:00.939Z,34.68
2019-06-01T11:06:00.926Z,34.67
2019-06-01T11:07:00.915Z,36.46
2019-06-01T11:08:00.918Z,35.19
2019-06-01T11:09:00.907Z,35.55
2019-06-01T11:10:00.941Z,34.42
2019-06-01T11:11:00.903Z,32.84
2019-06-01T11:12:00.908Z,32.62
2019-06-01T11:13:00.896Z,31.34
2019-06-01T11:14:00.854Z,30.43
2019-06-01T11:15:00.900Z,32.81
2019-06-01T11:16:00.846Z,33.23
2019-06-01T11:17:00.891Z,32.70
2019-06-01T11:18:00.822Z,31.82
2019-06-01T11:19:00.844Z,30.91
2019-06-01T11:20:00.834Z,30.83
2019-06-01T11:21:00.802Z,30.24
2019-06-01T11:22:00.798Z,30.85
2019-06-01T11:23:00.787Z,31.73
2019-06-01T11:24:00.781Z,32.55
2019-06-01T11:25:00.828Z,33.92
2019-06-01T11:26:00.768Z,37.35
2019-06-01T11:27:00.755Z,35.91
2019-06-01T11:28:00.756Z,34.58
2019-06-01T11:29:00.751Z,34.16
2019-06-01T11:30:00.753Z,33.87
2019-06-01T11:31:00.718Z,33.25
2019-06-01T11:32:00.712Z,32.62
2019-06-01T11:33:00.705Z,30.74
2019-06-01T11:34:00.699Z,30.41
2019-06-01T11:35:00.714Z,29.90
2019-06-01T11:36:00.685Z,29.50
2019-06-01T11:37:05.291Z,29.68
2019-06-01T11:38:01.672Z,29.91
2019-06-01T11:39:00.670Z,32.35
2019-06-01T11:40:00.686Z,34.41
2019-06-01T11:41:00.650Z,36.16
2019-06-01T11:42:00.635Z,36.18
2019-06-01T11:43:00.636Z,36.35
2019-06-01T11:44:00.619Z,36.90
2019-06-01T11:45:00.642Z,35.42
2019-06-01T11:46:00.597Z,35.14
2019-06-01T11:47:00.590Z,36.12
2019-06-01T11:48:00.575Z,35.45
2019-06-01T11:49:00.574Z,36.09
2019-06-01T11:50:00.576Z,37.30
2019-06-01T11:51:00.551Z,38.84
2019-06-01T11:52:00.547Z,40.55
2019-06-01T11:53:00.531Z,40.56
2019-06-01T11:54:00.524Z,41.02
2019-06-01T11:55:00.530Z,41.81
2019-06-01T11:56:00.500Z,42.91
2019-06-01T11:57:00.490Z,43.59
2019-06-01T11:58:00.507Z,42.40
2019-06-01T11:59:00.476Z,43.11
2019-06-01T12:00:00.484Z,43.60
2019-06-01T12:01:00.448Z,43.73
2019-06-01T12:02:00.432Z,43.43
2019-06-01T12:03:00.422Z,45.01
2019-06-01T12:04:00.422Z,44.81
2019-06-01T12:05:00.423Z,42.34
2019-06-01T12:06:00.392Z,43.60
2019-06-01T12:07:16.342Z,43.41
2019-06-01T12:08:01.371Z,42.02
2019-06-01T12:09:00.368Z,43.03
2019-06-01T12:10:00.374Z,42.66
2019-06-01T12:11:00.356Z,43.27
2019-06-01T12:12:00.326Z,43.96
2019-06-01T12:13:00.320Z,44.46
2019-06-01T12:14:00.306Z,44.16
2019-06-01T12:15:00.335Z,44.16
2019-06-01T12:16:00.286Z,44.85
2019-06-01T12:17:00.282Z,45.05
2019-06-01T12:18:00.280Z,44.09
2019-06-01T12:19:00.258Z,45.76
2019-06-01T12:20:00.262Z,46.04
2019-06-01T12:21:00.234Z,45.52
2019-06-01T12:22:00.246Z,45.01
2019-06-01T12:23:00.222Z,43.33
2019-06-01T12:24:00.202Z,42.76
2019-06-01T12:25:00.209Z,43.25
2019-06-01T12:26:00.179Z,43.52
2019-06-01T12:27:00.177Z,43.23
2019-06-01T12:28:00.163Z,42.34
2019-06-01T12:29:00.160Z,43.43
2019-06-01T12:30:00.176Z,43.33
2019-06-01T12:31:00.131Z,42.64
2019-06-01T12:32:00.115Z,43.51
2019-06-01T12:33:00.104Z,42.82
2019-06-01T12:34:00.098Z,43.23
2019-06-01T12:35:02.988Z,43.23
2019-06-01T12:36:00.072Z,42.83
2019-06-01T12:37:00.078Z,42.16
2019-06-01T12:38:06.435Z,42.56
2019-06-01T12:39:01.045Z,42.76
2019-06-01T12:40:00.052Z,42.85
2019-06-01T12:41:00.020Z,43.45
2019-06-01T12:42:00.016Z,42.26
2019-06-01T12:43:00.014Z,41.65
2019-06-01T12:43:59.994Z,41.47
2019-06-01T12:44:59.996Z,41.06
2019-06-01T12:46:07.141Z,41.25
2019-06-01T12:47:00.959Z,41.16
2019-06-01T12:47:59.948Z,41.06
2019-06-01T12:48:59.941Z,40.37
2019-06-01T12:49:59.970Z,40.86
2019-06-01T12:50:59.919Z,40.56
2019-06-01T12:51:59.906Z,41.16